sensor_id;sensor_type;location;lat;lon;timestamp;P1;durP1;ratioP1;P2;durP2;ratioP2
22774;SDS011;11554;51.106;3.684;2023-07-24T00:00:00;3.60;;;1.20;;
22774;SDS011;11554;51.106;3.684;2023-07-24T00:05:00;3.70;;;1.40;;
22774;SDS011;11554;51.106;3.684;2023-07-24T00:10:00;3.70;;;1.40;;
22774;SDS011;11554;51.106;3.684;2023-07-24T00:15:00;3.40;;;1.80;;
22774;SDS011;11554;51.106;3.684;2023-07-24T00:20:00;3.40;;;1.80;;
22774;SDS011;11554;51.106;3.684;2023-07-24T00:25:00;2.70;;;1.60;;
22774;SDS011;11554;51.106;3.684;2023-07-24T00:30:00;2.70;;;1.60;;
22774;SDS011;11554;51.106;3.684;2023-07-24T00:35:00;5.10;;;2.10;;
22774;SDS011;11554;51.106;3.684;2023-07-24T00:40:00;5.10;;;2.10;;
22774;SDS011;11554;51.106;3.684;2023-07-24T00:45:00;3.30;;;1.90;;
22774;SDS011;11554;51.106;3.684;2023-07-24T00:50:00;3.30;;;1.90;;
22774;SDS011;11554;51.106;3.684;2023-07-24T00:55:00;3.20;;;2.10;;
22774;SDS011;11554;51.106;3.684;2023-07-24T01:00:00;3.20;;;2.10;;
22774;SDS011;11554;51.106;3.684;2023-07-24T01:05:01;2.60;;;1.80;;
22774;SDS011;11554;51.106;3.684;2023-07-24T01:10:00;2.60;;;1.80;;
22774;SDS011;11554;51.106;3.684;2023-07-24T01:15:03;3.00;;;2.10;;
22774;SDS011;11554;51.106;3.684;2023-07-24T01:20:03;3.00;;;2.10;;
22774;SDS011;11554;51.106;3.684;2023-07-24T01:25:04;3.50;;;2.20;;
22774;SDS011;11554;51.106;3.684;2023-07-24T01:30:00;3.50;;;2.20;;
22774;SDS011;11554;51.106;3.684;2023-07-24T01:35:00;3.80;;;2.40;;
22774;SDS011;11554;51.106;3.684;2023-07-24T01:40:00;3.80;;;2.40;;
22774;SDS011;11554;51.106;3.684;2023-07-24T01:45:02;4.20;;;2.30;;
22774;SDS011;11554;51.106;3.684;2023-07-24T01:50:00;4.20;;;2.30;;
22774;SDS011;11554;51.106;3.684;2023-07-24T01:55:00;4.60;;;2.70;;
22774;SDS011;11554;51.106;3.684;2023-07-24T02:00:00;4.60;;;2.70;;
22774;SDS011;11554;51.106;3.684;2023-07-24T02:05:00;4.70;;;2.60;;
22774;SDS011;11554;51.106;3.684;2023-07-24T02:10:00;4.70;;;2.60;;
22774;SDS011;11554;51.106;3.684;2023-07-24T02:15:00;5.00;;;2.80;;
22774;SDS011;11554;51.106;3.684;2023-07-24T02:20:00;5.00;;;2.80;;
22774;SDS011;11554;51.106;3.684;2023-07-24T02:25:00;4.40;;;2.40;;
22774;SDS011;11554;51.106;3.684;2023-07-24T02:30:00;4.40;;;2.40;;
22774;SDS011;11554;51.106;3.684;2023-07-24T02:35:00;4.00;;;2.70;;
22774;SDS011;11554;51.106;3.684;2023-07-24T02:40:00;4.00;;;2.70;;
22774;SDS011;11554;51.106;3.684;2023-07-24T02:45:00;4.00;;;2.50;;
22774;SDS011;11554;51.106;3.684;2023-07-24T02:50:00;4.00;;;2.50;;
22774;SDS011;11554;51.106;3.684;2023-07-24T02:55:00;3.50;;;2.40;;
22774;SDS011;11554;51.106;3.684;2023-07-24T03:00:00;3.50;;;2.40;;
22774;SDS011;11554;51.106;3.684;2023-07-24T03:05:00;4.70;;;3.00;;
22774;SDS011;11554;51.106;3.684;2023-07-24T03:10:00;4.70;;;3.00;;
22774;SDS011;11554;51.106;3.684;2023-07-24T03:15:00;3.70;;;2.20;;
22774;SDS011;11554;51.106;3.684;2023-07-24T03:20:07;3.70;;;2.20;;
22774;SDS011;11554;51.106;3.684;2023-07-24T03:25:00;5.10;;;2.40;;
22774;SDS011;11554;51.106;3.684;2023-07-24T03:30:00;5.10;;;2.40;;
22774;SDS011;11554;51.106;3.684;2023-07-24T03:35:00;3.80;;;2.50;;
22774;SDS011;11554;51.106;3.684;2023-07-24T03:40:00;3.80;;;2.50;;
22774;SDS011;11554;51.106;3.684;2023-07-24T03:45:00;4.20;;;2.60;;
22774;SDS011;11554;51.106;3.684;2023-07-24T03:50:00;4.20;;;2.60;;
22774;SDS011;11554;51.106;3.684;2023-07-24T03:55:00;4.30;;;2.80;;
22774;SDS011;11554;51.106;3.684;2023-07-24T04:00:00;4.30;;;2.80;;
22774;SDS011;11554;51.106;3.684;2023-07-24T04:05:00;4.90;;;3.00;;
22774;SDS011;11554;51.106;3.684;2023-07-24T04:10:00;4.90;;;3.00;;
22774;SDS011;11554;51.106;3.684;2023-07-24T04:15:00;4.50;;;2.70;;
22774;SDS011;11554;51.106;3.684;2023-07-24T04:20:00;4.50;;;2.70;;
22774;SDS011;11554;51.106;3.684;2023-07-24T04:25:00;3.80;;;2.70;;
22774;SDS011;11554;51.106;3.684;2023-07-24T04:30:00;3.80;;;2.70;;
22774;SDS011;11554;51.106;3.684;2023-07-24T04:35:00;4.60;;;3.00;;
22774;SDS011;11554;51.106;3.684;2023-07-24T04:40:00;4.60;;;3.00;;
22774;SDS011;11554;51.106;3.684;2023-07-24T04:45:00;4.90;;;3.10;;
22774;SDS011;11554;51.106;3.684;2023-07-24T04:50:00;4.90;;;3.10;;
22774;SDS011;11554;51.106;3.684;2023-07-24T04:55:00;4.90;;;3.40;;
22774;SDS011;11554;51.106;3.684;2023-07-24T05:00:00;4.90;;;3.40;;
22774;SDS011;11554;51.106;3.684;2023-07-24T05:05:00;5.30;;;3.30;;
22774;SDS011;11554;51.106;3.684;2023-07-24T05:10:00;5.30;;;3.30;;
22774;SDS011;11554;51.106;3.684;2023-07-24T05:15:00;7.50;;;3.60;;
22774;SDS011;11554;51.106;3.684;2023-07-24T05:20:00;7.50;;;3.60;;
22774;SDS011;11554;51.106;3.684;2023-07-24T05:25:00;5.50;;;3.90;;
22774;SDS011;11554;51.106;3.684;2023-07-24T05:30:00;5.50;;;3.90;;
22774;SDS011;11554;51.106;3.684;2023-07-24T05:35:00;5.40;;;3.70;;
22774;SDS011;11554;51.106;3.684;2023-07-24T05:40:00;5.40;;;3.70;;
22774;SDS011;11554;51.106;3.684;2023-07-24T05:45:00;5.30;;;4.00;;
22774;SDS011;11554;51.106;3.684;2023-07-24T05:50:00;5.30;;;4.00;;
22774;SDS011;11554;51.106;3.684;2023-07-24T05:55:00;7.50;;;3.90;;
22774;SDS011;11554;51.106;3.684;2023-07-24T06:00:00;7.50;;;3.90;;
22774;SDS011;11554;51.106;3.684;2023-07-24T06:05:00;7.00;;;4.30;;
22774;SDS011;11554;51.106;3.684;2023-07-24T06:10:00;7.00;;;4.30;;
22774;SDS011;11554;51.106;3.684;2023-07-24T06:15:00;5.80;;;4.70;;
22774;SDS011;11554;51.106;3.684;2023-07-24T06:20:00;5.80;;;4.70;;
22774;SDS011;11554;51.106;3.684;2023-07-24T06:25:00;7.90;;;4.50;;
22774;SDS011;11554;51.106;3.684;2023-07-24T06:30:00;7.90;;;4.50;;
22774;SDS011;11554;51.106;3.684;2023-07-24T06:35:00;7.30;;;4.70;;
22774;SDS011;11554;51.106;3.684;2023-07-24T06:40:01;7.30;;;4.70;;
22774;SDS011;11554;51.106;3.684;2023-07-24T06:45:00;7.60;;;4.90;;
22774;SDS011;11554;51.106;3.684;2023-07-24T06:50:00;7.60;;;4.90;;
22774;SDS011;11554;51.106;3.684;2023-07-24T06:55:00;7.50;;;4.60;;
22774;SDS011;11554;51.106;3.684;2023-07-24T07:00:00;7.50;;;4.60;;
22774;SDS011;11554;51.106;3.684;2023-07-24T07:05:00;7.30;;;4.60;;
22774;SDS011;11554;51.106;3.684;2023-07-24T07:10:00;7.30;;;4.60;;
22774;SDS011;11554;51.106;3.684;2023-07-24T07:15:00;7.00;;;4.30;;
22774;SDS011;11554;51.106;3.684;2023-07-24T07:20:00;7.00;;;4.30;;
22774;SDS011;11554;51.106;3.684;2023-07-24T07:25:00;6.90;;;4.50;;
22774;SDS011;11554;51.106;3.684;2023-07-24T07:30:00;6.90;;;4.50;;
22774;SDS011;11554;51.106;3.684;2023-07-24T07:35:00;6.60;;;4.00;;
22774;SDS011;11554;51.106;3.684;2023-07-24T07:40:00;6.60;;;4.00;;
22774;SDS011;11554;51.106;3.684;2023-07-24T07:45:00;6.40;;;4.10;;
22774;SDS011;11554;51.106;3.684;2023-07-24T07:50:00;6.40;;;4.10;;
22774;SDS011;11554;51.106;3.684;2023-07-24T07:55:00;6.40;;;3.90;;
22774;SDS011;11554;51.106;3.684;2023-07-24T08:00:00;6.40;;;3.90;;
22774;SDS011;11554;51.106;3.684;2023-07-24T08:05:00;6.20;;;4.00;;
22774;SDS011;11554;51.106;3.684;2023-07-24T08:10:00;6.20;;;4.00;;
22774;SDS011;11554;51.106;3.684;2023-07-24T08:15:00;5.40;;;3.50;;
22774;SDS011;11554;51.106;3.684;2023-07-24T08:20:00;5.40;;;3.50;;
22774;SDS011;11554;51.106;3.684;2023-07-24T08:25:00;5.10;;;3.60;;
22774;SDS011;11554;51.106;3.684;2023-07-24T08:30:00;5.10;;;3.60;;
22774;SDS011;11554;51.106;3.684;2023-07-24T08:35:00;6.90;;;3.90;;
22774;SDS011;11554;51.106;3.684;2023-07-24T08:40:00;6.90;;;3.90;;
22774;SDS011;11554;51.106;3.684;2023-07-24T08:45:01;6.90;;;3.70;;
22774;SDS011;11554;51.106;3.684;2023-07-24T08:50:00;6.90;;;3.70;;
22774;SDS011;11554;51.106;3.684;2023-07-24T08:55:01;7.60;;;4.30;;
22774;SDS011;11554;51.106;3.684;2023-07-24T09:00:00;7.60;;;4.30;;
22774;SDS011;11554;51.106;3.684;2023-07-24T09:05:00;6.60;;;3.90;;
22774;SDS011;11554;51.106;3.684;2023-07-24T09:10:00;6.60;;;3.90;;
22774;SDS011;11554;51.106;3.684;2023-07-24T09:15:00;7.50;;;4.80;;
22774;SDS011;11554;51.106;3.684;2023-07-24T09:20:00;7.50;;;4.80;;
22774;SDS011;11554;51.106;3.684;2023-07-24T09:25:00;8.20;;;5.20;;
22774;SDS011;11554;51.106;3.684;2023-07-24T09:30:01;8.20;;;5.20;;
22774;SDS011;11554;51.106;3.684;2023-07-24T09:35:00;6.80;;;4.10;;
22774;SDS011;11554;51.106;3.684;2023-07-24T09:40:03;6.80;;;4.10;;
22774;SDS011;11554;51.106;3.684;2023-07-24T09:45:00;8.60;;;5.20;;
22774;SDS011;11554;51.106;3.684;2023-07-24T09:50:03;8.60;;;5.20;;
22774;SDS011;11554;51.106;3.684;2023-07-24T09:55:08;7.20;;;4.00;;
22774;SDS011;11554;51.106;3.684;2023-07-24T10:00:00;7.20;;;4.00;;
22774;SDS011;11554;51.106;3.684;2023-07-24T10:05:00;4.60;;;2.80;;
22774;SDS011;11554;51.106;3.684;2023-07-24T10:10:01;4.60;;;2.80;;
22774;SDS011;11554;51.106;3.684;2023-07-24T10:15:01;6.50;;;3.90;;
22774;SDS011;11554;51.106;3.684;2023-07-24T10:20:03;6.50;;;3.90;;
22774;SDS011;11554;51.106;3.684;2023-07-24T10:25:00;7.80;;;3.90;;
22774;SDS011;11554;51.106;3.684;2023-07-24T10:30:01;7.80;;;3.90;;
22774;SDS011;11554;51.106;3.684;2023-07-24T10:35:08;11.30;;;3.90;;
22774;SDS011;11554;51.106;3.684;2023-07-24T10:40:00;11.30;;;3.90;;
22774;SDS011;11554;51.106;3.684;2023-07-24T10:45:03;5.60;;;3.10;;
22774;SDS011;11554;51.106;3.684;2023-07-24T10:50:00;5.60;;;3.10;;
22774;SDS011;11554;51.106;3.684;2023-07-24T10:55:00;6.30;;;3.30;;
22774;SDS011;11554;51.106;3.684;2023-07-24T11:00:00;6.30;;;3.30;;
22774;SDS011;11554;51.106;3.684;2023-07-24T11:05:00;5.10;;;3.20;;
22774;SDS011;11554;51.106;3.684;2023-07-24T11:10:00;5.10;;;3.20;;
22774;SDS011;11554;51.106;3.684;2023-07-24T11:15:00;6.60;;;4.50;;
22774;SDS011;11554;51.106;3.684;2023-07-24T11:20:05;6.60;;;4.50;;
22774;SDS011;11554;51.106;3.684;2023-07-24T11:25:00;6.30;;;3.70;;
22774;SDS011;11554;51.106;3.684;2023-07-24T11:30:00;6.30;;;3.70;;
22774;SDS011;11554;51.106;3.684;2023-07-24T11:35:00;6.20;;;3.70;;
22774;SDS011;11554;51.106;3.684;2023-07-24T11:40:02;6.20;;;3.70;;
22774;SDS011;11554;51.106;3.684;2023-07-24T11:45:01;6.90;;;3.70;;
22774;SDS011;11554;51.106;3.684;2023-07-24T11:50:01;6.90;;;3.70;;
22774;SDS011;11554;51.106;3.684;2023-07-24T11:55:00;6.80;;;4.50;;
22774;SDS011;11554;51.106;3.684;2023-07-24T12:00:00;6.80;;;4.50;;
22774;SDS011;11554;51.106;3.684;2023-07-24T12:05:00;6.50;;;4.10;;
22774;SDS011;11554;51.106;3.684;2023-07-24T12:10:01;6.50;;;4.10;;
22774;SDS011;11554;51.106;3.684;2023-07-24T12:15:00;8.70;;;5.60;;
22774;SDS011;11554;51.106;3.684;2023-07-24T12:20:00;8.70;;;5.60;;
22774;SDS011;11554;51.106;3.684;2023-07-24T12:25:00;8.20;;;5.10;;
22774;SDS011;11554;51.106;3.684;2023-07-24T12:30:00;8.20;;;5.10;;
22774;SDS011;11554;51.106;3.684;2023-07-24T12:35:00;12.00;;;5.60;;
22774;SDS011;11554;51.106;3.684;2023-07-24T12:40:00;12.00;;;5.60;;
22774;SDS011;11554;51.106;3.684;2023-07-24T12:45:00;6.80;;;3.90;;
22774;SDS011;11554;51.106;3.684;2023-07-24T12:50:00;6.80;;;3.90;;
22774;SDS011;11554;51.106;3.684;2023-07-24T12:55:00;7.80;;;4.00;;
22774;SDS011;11554;51.106;3.684;2023-07-24T13:00:00;7.80;;;4.00;;
22774;SDS011;11554;51.106;3.684;2023-07-24T13:05:00;9.40;;;4.30;;
22774;SDS011;11554;51.106;3.684;2023-07-24T13:10:00;9.40;;;4.30;;
22774;SDS011;11554;51.106;3.684;2023-07-24T13:15:00;7.20;;;4.60;;
22774;SDS011;11554;51.106;3.684;2023-07-24T13:20:00;7.20;;;4.60;;
22774;SDS011;11554;51.106;3.684;2023-07-24T13:25:00;8.40;;;4.80;;
22774;SDS011;11554;51.106;3.684;2023-07-24T13:30:00;8.40;;;4.80;;
22774;SDS011;11554;51.106;3.684;2023-07-24T13:35:00;4.90;;;3.40;;
22774;SDS011;11554;51.106;3.684;2023-07-24T13:40:00;4.90;;;3.40;;
22774;SDS011;11554;51.106;3.684;2023-07-24T13:45:00;7.80;;;4.30;;
22774;SDS011;11554;51.106;3.684;2023-07-24T13:50:00;7.80;;;4.30;;
22774;SDS011;11554;51.106;3.684;2023-07-24T13:55:00;7.50;;;4.70;;
22774;SDS011;11554;51.106;3.684;2023-07-24T14:00:00;7.50;;;4.70;;
22774;SDS011;11554;51.106;3.684;2023-07-24T14:05:00;7.80;;;4.70;;
22774;SDS011;11554;51.106;3.684;2023-07-24T14:10:00;7.80;;;4.70;;
22774;SDS011;11554;51.106;3.684;2023-07-24T14:15:00;8.10;;;5.00;;
22774;SDS011;11554;51.106;3.684;2023-07-24T14:20:00;8.10;;;5.00;;
22774;SDS011;11554;51.106;3.684;2023-07-24T14:25:00;9.00;;;5.20;;
22774;SDS011;11554;51.106;3.684;2023-07-24T14:30:00;9.00;;;5.20;;
22774;SDS011;11554;51.106;3.684;2023-07-24T14:35:00;5.80;;;3.20;;
22774;SDS011;11554;51.106;3.684;2023-07-24T14:40:00;5.80;;;3.20;;
22774;SDS011;11554;51.106;3.684;2023-07-24T14:45:00;4.50;;;2.30;;
22774;SDS011;11554;51.106;3.684;2023-07-24T14:50:00;4.50;;;2.30;;
22774;SDS011;11554;51.106;3.684;2023-07-24T14:55:00;4.60;;;1.70;;
22774;SDS011;11554;51.106;3.684;2023-07-24T15:00:00;4.60;;;1.70;;
22774;SDS011;11554;51.106;3.684;2023-07-24T15:05:00;3.60;;;1.60;;
22774;SDS011;11554;51.106;3.684;2023-07-24T15:10:00;3.60;;;1.60;;
22774;SDS011;11554;51.106;3.684;2023-07-24T15:15:00;5.00;;;1.40;;
22774;SDS011;11554;51.106;3.684;2023-07-24T15:20:00;5.00;;;1.40;;
22774;SDS011;11554;51.106;3.684;2023-07-24T15:25:00;4.30;;;1.40;;
22774;SDS011;11554;51.106;3.684;2023-07-24T15:30:00;4.30;;;1.40;;
22774;SDS011;11554;51.106;3.684;2023-07-24T15:35:00;3.00;;;1.10;;
22774;SDS011;11554;51.106;3.684;2023-07-24T15:40:00;3.00;;;1.10;;
22774;SDS011;11554;51.106;3.684;2023-07-24T15:45:00;3.90;;;1.00;;
22774;SDS011;11554;51.106;3.684;2023-07-24T15:50:00;3.90;;;1.00;;
22774;SDS011;11554;51.106;3.684;2023-07-24T15:55:00;2.10;;;0.60;;
22774;SDS011;11554;51.106;3.684;2023-07-24T16:00:00;2.10;;;0.60;;
22774;SDS011;11554;51.106;3.684;2023-07-24T16:05:03;3.00;;;0.50;;
22774;SDS011;11554;51.106;3.684;2023-07-24T16:10:00;3.00;;;0.50;;
22774;SDS011;11554;51.106;3.684;2023-07-24T16:15:00;2.30;;;0.50;;
22774;SDS011;11554;51.106;3.684;2023-07-24T16:20:00;2.30;;;0.50;;
22774;SDS011;11554;51.106;3.684;2023-07-24T16:25:00;1.90;;;0.30;;
22774;SDS011;11554;51.106;3.684;2023-07-24T16:30:00;1.90;;;0.30;;
22774;SDS011;11554;51.106;3.684;2023-07-24T16:35:00;2.20;;;0.50;;
22774;SDS011;11554;51.106;3.684;2023-07-24T16:40:00;2.20;;;0.50;;
22774;SDS011;11554;51.106;3.684;2023-07-24T16:45:00;2.50;;;0.70;;
22774;SDS011;11554;51.106;3.684;2023-07-24T16:50:00;2.50;;;0.70;;
22774;SDS011;11554;51.106;3.684;2023-07-24T16:55:00;2.30;;;0.50;;
22774;SDS011;11554;51.106;3.684;2023-07-24T17:00:00;2.30;;;0.50;;
22774;SDS011;11554;51.106;3.684;2023-07-24T17:05:00;4.10;;;0.70;;
22774;SDS011;11554;51.106;3.684;2023-07-24T17:10:00;4.10;;;0.70;;
22774;SDS011;11554;51.106;3.684;2023-07-24T17:15:00;2.40;;;0.80;;
22774;SDS011;11554;51.106;3.684;2023-07-24T17:20:00;2.40;;;0.80;;
22774;SDS011;11554;51.106;3.684;2023-07-24T17:25:00;2.80;;;0.80;;
22774;SDS011;11554;51.106;3.684;2023-07-24T17:30:00;2.80;;;0.80;;
22774;SDS011;11554;51.106;3.684;2023-07-24T17:35:00;3.80;;;1.10;;
22774;SDS011;11554;51.106;3.684;2023-07-24T17:40:00;3.80;;;1.10;;
22774;SDS011;11554;51.106;3.684;2023-07-24T17:45:00;4.80;;;1.00;;
22774;SDS011;11554;51.106;3.684;2023-07-24T17:50:00;4.80;;;1.00;;
22774;SDS011;11554;51.106;3.684;2023-07-24T17:55:00;5.40;;;1.10;;
22774;SDS011;11554;51.106;3.684;2023-07-24T18:00:00;5.40;;;1.10;;
22774;SDS011;11554;51.106;3.684;2023-07-24T18:05:00;4.10;;;1.40;;
22774;SDS011;11554;51.106;3.684;2023-07-24T18:10:00;4.10;;;1.40;;
22774;SDS011;11554;51.106;3.684;2023-07-24T18:15:00;5.10;;;1.20;;
22774;SDS011;11554;51.106;3.684;2023-07-24T18:20:00;5.10;;;1.20;;
22774;SDS011;11554;51.106;3.684;2023-07-24T18:25:00;6.60;;;1.40;;
22774;SDS011;11554;51.106;3.684;2023-07-24T18:30:00;6.60;;;1.40;;
22774;SDS011;11554;51.106;3.684;2023-07-24T18:35:00;6.10;;;1.30;;
22774;SDS011;11554;51.106;3.684;2023-07-24T18:40:00;6.10;;;1.30;;
22774;SDS011;11554;51.106;3.684;2023-07-24T18:45:00;3.20;;;1.10;;
22774;SDS011;11554;51.106;3.684;2023-07-24T18:50:01;3.20;;;1.10;;
22774;SDS011;11554;51.106;3.684;2023-07-24T18:55:00;6.20;;;1.80;;
22774;SDS011;11554;51.106;3.684;2023-07-24T19:00:00;6.20;;;1.80;;
22774;SDS011;11554;51.106;3.684;2023-07-24T19:05:00;6.40;;;1.50;;
22774;SDS011;11554;51.106;3.684;2023-07-24T19:10:00;6.40;;;1.50;;
22774;SDS011;11554;51.106;3.684;2023-07-24T19:15:00;5.90;;;1.60;;
22774;SDS011;11554;51.106;3.684;2023-07-24T19:20:00;5.90;;;1.60;;
22774;SDS011;11554;51.106;3.684;2023-07-24T19:25:00;7.70;;;1.70;;
22774;SDS011;11554;51.106;3.684;2023-07-24T19:30:00;7.70;;;1.70;;
22774;SDS011;11554;51.106;3.684;2023-07-24T19:35:00;6.10;;;1.60;;
22774;SDS011;11554;51.106;3.684;2023-07-24T19:40:00;6.10;;;1.60;;
22774;SDS011;11554;51.106;3.684;2023-07-24T19:45:00;8.40;;;1.70;;
22774;SDS011;11554;51.106;3.684;2023-07-24T19:50:00;8.40;;;1.70;;
22774;SDS011;11554;51.106;3.684;2023-07-24T19:55:00;7.70;;;1.80;;
22774;SDS011;11554;51.106;3.684;2023-07-24T20:00:00;7.70;;;1.80;;
22774;SDS011;11554;51.106;3.684;2023-07-24T20:05:00;8.70;;;2.10;;
22774;SDS011;11554;51.106;3.684;2023-07-24T20:10:00;8.70;;;2.10;;
22774;SDS011;11554;51.106;3.684;2023-07-24T20:15:00;6.60;;;1.70;;
22774;SDS011;11554;51.106;3.684;2023-07-24T20:20:00;6.60;;;1.70;;
22774;SDS011;11554;51.106;3.684;2023-07-24T20:25:00;8.30;;;2.00;;
22774;SDS011;11554;51.106;3.684;2023-07-24T20:30:00;8.30;;;2.00;;
22774;SDS011;11554;51.106;3.684;2023-07-24T20:35:00;7.00;;;1.70;;
22774;SDS011;11554;51.106;3.684;2023-07-24T20:40:00;7.00;;;1.70;;
22774;SDS011;11554;51.106;3.684;2023-07-24T20:45:00;8.80;;;2.00;;
22774;SDS011;11554;51.106;3.684;2023-07-24T20:50:00;8.80;;;2.00;;
22774;SDS011;11554;51.106;3.684;2023-07-24T20:55:00;4.70;;;1.50;;
22774;SDS011;11554;51.106;3.684;2023-07-24T21:00:00;4.70;;;1.50;;
22774;SDS011;11554;51.106;3.684;2023-07-24T21:05:00;7.30;;;1.50;;
22774;SDS011;11554;51.106;3.684;2023-07-24T21:10:00;7.30;;;1.50;;
22774;SDS011;11554;51.106;3.684;2023-07-24T21:15:00;7.20;;;1.60;;
22774;SDS011;11554;51.106;3.684;2023-07-24T21:20:00;7.20;;;1.60;;
22774;SDS011;11554;51.106;3.684;2023-07-24T21:25:00;4.20;;;1.30;;
22774;SDS011;11554;51.106;3.684;2023-07-24T21:30:00;4.20;;;1.30;;
22774;SDS011;11554;51.106;3.684;2023-07-24T21:35:00;5.60;;;1.50;;
22774;SDS011;11554;51.106;3.684;2023-07-24T21:40:00;5.60;;;1.50;;
22774;SDS011;11554;51.106;3.684;2023-07-24T21:45:00;5.60;;;1.60;;
22774;SDS011;11554;51.106;3.684;2023-07-24T21:50:00;5.60;;;1.60;;
22774;SDS011;11554;51.106;3.684;2023-07-24T21:55:00;5.50;;;1.70;;
22774;SDS011;11554;51.106;3.684;2023-07-24T22:00:00;5.50;;;1.70;;
22774;SDS011;11554;51.106;3.684;2023-07-24T22:05:00;5.10;;;1.60;;
22774;SDS011;11554;51.106;3.684;2023-07-24T22:10:00;5.10;;;1.60;;
22774;SDS011;11554;51.106;3.684;2023-07-24T22:15:00;4.70;;;1.60;;
22774;SDS011;11554;51.106;3.684;2023-07-24T22:20:00;4.70;;;1.60;;
22774;SDS011;11554;51.106;3.684;2023-07-24T22:25:00;4.60;;;1.60;;
22774;SDS011;11554;51.106;3.684;2023-07-24T22:30:00;4.60;;;1.60;;
22774;SDS011;11554;51.106;3.684;2023-07-24T22:35:00;7.00;;;2.00;;
22774;SDS011;11554;51.106;3.684;2023-07-24T22:40:00;7.00;;;2.00;;
22774;SDS011;11554;51.106;3.684;2023-07-24T22:45:00;8.90;;;2.10;;
22774;SDS011;11554;51.106;3.684;2023-07-24T22:50:00;8.90;;;2.10;;
22774;SDS011;11554;51.106;3.684;2023-07-24T22:55:00;7.70;;;2.20;;
22774;SDS011;11554;51.106;3.684;2023-07-24T23:00:00;7.70;;;2.20;;
22774;SDS011;11554;51.106;3.684;2023-07-24T23:05:00;8.10;;;2.40;;
22774;SDS011;11554;51.106;3.684;2023-07-24T23:10:00;8.10;;;2.40;;
22774;SDS011;11554;51.106;3.684;2023-07-24T23:15:00;7.80;;;2.20;;
22774;SDS011;11554;51.106;3.684;2023-07-24T23:20:00;7.80;;;2.20;;
22774;SDS011;11554;51.106;3.684;2023-07-24T23:25:00;7.00;;;2.20;;
22774;SDS011;11554;51.106;3.684;2023-07-24T23:30:00;7.00;;;2.20;;
22774;SDS011;11554;51.106;3.684;2023-07-24T23:35:00;7.50;;;2.30;;
22774;SDS011;11554;51.106;3.684;2023-07-24T23:40:00;7.50;;;2.30;;
22774;SDS011;11554;51.106;3.684;2023-07-24T23:45:00;7.00;;;2.40;;
22774;SDS011;11554;51.106;3.684;2023-07-24T23:50:00;7.00;;;2.40;;
22774;SDS011;11554;51.106;3.684;2023-07-24T23:55:00;4.70;;;1.80;;
